Merry Christmas and Happy New Year!

 

Sretan Božić i Nova godina!

 

METAR

METAR LDZA 280430Z 28003KT CAVOK 03/02 Q1004 NOSIG =
METAR LDSP 280430Z AUTO 33005KT 300V010 7000 RA FEW015/// SCT020/// BKN032/// 08/07 Q1006 NOSIG=
METAR LDDU 280430Z 11016KT 9999 -RA FEW020 SCT026 BKN040 07/05 Q1008 NOSIG =
METAR COR LDZD 280430Z 36006KT 310V030 9999 RA FEW018 SCT022 BKN045 07/07 Q1006 TEMPO 34015G25 TSRA  SCT025CB =
METAR LDPL 280430Z 32006KT CAVOK 05/02 Q1006 BECMG 32012KT=
METAR LDOS 280430Z 16009KT 9999 FEW043 05/00 Q1003=
METAR LDRI 280430Z 08003KT 9999 -RA BKN033 05/03 Q1006=

TAF

TAF LDZA 272325Z 2800/2900 22010KT 9999 SCT045
                 TX12/2813Z TN02/2823Z
    PROB30 TEMPO 2802/2806 30015G25KT 4000 TSRA FEW030CB BKN040
           BECMG 2804/2806 30010KT
           TEMPO 2810/2816 30015G25KT
           BECMG 2820/2822 VRB02KT=
TAF LDSP 272325Z 2800/2900 15012KT 9999 OVC045
                 TX13/2812Z TN03/2823Z
    PROB40 TEMPO 2803/2807 30015G25KT 3000 TSRA FEW035CB BKN040
           BECMG 2806/2808 34015KT
    PROB30 TEMPO 2809/2813 34018G28KT
           BECMG 2818/2820 VRB02KT=
TAF LDDU 272325Z 2800/2900 08010KT CAVOK
                 TX12/2812Z TN05/2805Z
           BECMG 2800/2802 14015KT
           TEMPO 2803/2810 14018G28KT RA
    PROB40 TEMPO 2806/2812 4000 TSRA FEW030CB BKN035
           BECMG 2810/2812 32015KT=
TAF LDZD 272325Z 2800/2900 17012KT 9999 BKN050
                 TX12/2812Z TN03/2823Z
           TEMPO 2800/2805 4000 RA
           BECMG 2802/2804 32010KT
    PROB30 TEMPO 2802/2805 25015G25KT TSRA FEW030CB BKN040
    PROB40 TEMPO 2810/2814 32015G25KT
           BECMG 2818/2820 04006KT=
TAF LDPL 272325Z 2800/2900 24015KT 9999 BKN035
                 TX14/2813Z TN04/2806Z
    PROB30 TEMPO 2800/2803 23015G25KT RA
    PROB30 TEMPO 2800/2802 TS FEW030CB BKN035
           BECMG 2801/2803 32012KT
           BECMG 2813/2815 VRB02KT=
TAF LDOS 272325Z 2800/2900 16012KT CAVOK
                 TX08/2813Z TN01/2823Z
    PROB30 TEMPO 2803/2806 RA
           BECMG 2806/2808 32015KT
    PROB40 TEMPO 2808/2818 32020G30KT=
TAF AMD LDRI 280200Z 2801/2900 03005KT 9999 BKN030
                     TX14/2814Z TN03/2823Z
               TEMPO 2801/2803 RA
               BECMG 2807/2809 32008KT
               BECMG 2816/2818 VRB02KT=

SIGMET

AIRMET

LDZO AIRMET 5 VALID 280400/280600 LDZA-
LDZO ZAGREB FIR MT OBSC FCST WI N4534 E01436 - N4529 E01501 - N4233
E01825 - N4350 E01556 - N4520 E01353 - N4534 E01436 ABV 2000FT MOV
SE 15KT NC=
LDZO AIRMET 6 VALID 280400/280800 LDZA-
LDZO ZAGREB FIR MOD ICE FCST WI N4620 E01651 - N4552 E01853 - N4512
E01924 - N4126 E01818 - N4241 E01548 - N4328 E01433 - N4415 E01340 -
N4620 E01651 ABV 4000FT MOV SE 15KT NC=
LDZO AIRMET 7 VALID 280400/280800 LDZA-
LDZO ZAGREB FIR SFC WIND 320/30KT FCST WI N4253 E01706 - N4220
E01615 - N4330 E01431 - N4432 E01322 - N4253 E01706 MOV SE 30KT NC=

Remark

Ukoliko se brzina i smjer vjetra ne mogu odrediti zbog privremenog kvara sustava/indikatora,
informacija o vjetru u METAR izvješću bit će prikazana kao "/////KT".

 

Disclaimer

 

In case of temporary system/sensor failure, wind speed and direction data will be represented as "/////KT" in METAR report.

 

If you cannot log in with your user account, please contact stjepko.jancijev@crocontrol.hr.
Specifically, the website deactivates user accounts that have not been used for more than 365 days, so they must be reactivated.
 

         

      Politika MET podataka      

 

Ukoliko se svojim korisničkim računom ne možete logirati na web stranicu, molim vas da se obratite na stjepko.jancijev@crocontrol.hr.

Naime, web stranica deaktivira korisničke račune koji nisu korišteni više od 365 dana te ih je potrebno ponovno aktivirati.